Time;durP1;ratioP1;P1;durP2;ratioP2;P2;SDS_P1;SDS_P2;PMS_P1;PMS_P2;Temp;Humidity;BMP_temperature;BMP_pressure;BME280_temperature;BME280_humidity;BME280_pressure;Samples;Min_cycle;Max_cycle;Signal;HPM_P1;HPM_P2
2024/01/21 00:01:13;;;;;;;43.17;31.88;;;;;;;-6.28;76.99;99650.53;4929253;29;20032;-71
2024/01/21 00:03:38;;;;;;;39.72;22.95;;;;;;;-6.54;76.98;99643.56;4937414;29;20042;-70
2024/01/21 00:06:04;;;;;;;44.35;30.70;;;;;;;-6.41;77.14;99636.56;4929598;29;20043;-70
2024/01/21 00:08:29;;;;;;;43.78;26.20;;;;;;;-6.66;76.56;99607.72;4977714;23;20038;-71
2024/01/21 00:10:55;;;;;;;41.80;21.38;;;;;;;-6.66;76.27;99633.91;4963870;28;20065;-71
2024/01/21 00:13:20;;;;;;;46.30;27.17;;;;;;;-6.63;76.15;99631.09;4968962;28;20061;-71
2024/01/21 00:15:46;;;;;;;42.78;25.02;;;;;;;-6.76;76.58;99615.34;4964692;28;20037;-71
2024/01/21 00:18:11;;;;;;;46.72;27.83;;;;;;;-6.63;75.98;99618.84;4966257;28;20066;-73
2024/01/21 00:20:37;;;;;;;43.13;23.58;;;;;;;-6.88;76.47;99612.69;4946555;28;20109;-72
2024/01/21 00:23:03;;;;;;;48.25;33.95;;;;;;;-6.59;76.50;99619.47;4942043;29;20053;-72
2024/01/21 00:25:28;;;;;;;45.88;22.23;;;;;;;-6.83;76.27;99621.06;4969947;28;20038;-71
2024/01/21 00:27:54;;;;;;;47.28;25.13;;;;;;;-6.77;76.04;99605.81;4947646;29;20066;-73
2024/01/21 00:30:19;;;;;;;44.97;23.90;;;;;;;-6.78;75.72;99601.50;4951930;29;20031;-72
2024/01/21 00:32:45;;;;;;;41.50;22.42;;;;;;;-6.91;76.17;99599.81;4953610;29;20514;-72
2024/01/21 00:35:10;;;;;;;45.75;34.80;;;;;;;-6.80;75.58;99592.91;4951804;29;20043;-72
2024/01/21 00:37:36;;;;;;;48.63;24.48;;;;;;;-7.21;75.56;99574.69;4929051;29;20043;-72
2024/01/21 00:40:01;;;;;;;53.20;28.95;;;;;;;-7.15;75.70;99595.22;4949942;29;20058;-72
2024/01/21 00:42:27;;;;;;;50.55;28.20;;;;;;;-7.58;75.89;99528.28;4949379;29;20513;-72
2024/01/21 00:44:53;;;;;;;45.78;28.13;;;;;;;-7.31;75.95;99568.38;4949307;29;20138;-72
2024/01/21 00:47:20;;;;;;;54.10;25.23;;;;;;;-7.45;75.67;99578.03;4946041;29;20089;-70
2024/01/21 00:49:46;;;;;;;46.45;31.75;;;;;;;-7.13;75.96;99588.13;4948212;29;20034;-73
2024/01/21 00:52:11;;;;;;;49.10;30.45;;;;;;;-7.13;75.48;99588.13;4947352;29;20027;-73
2024/01/21 00:54:37;;;;;;;46.88;24.52;;;;;;;-7.26;75.49;99581.97;4946826;28;20522;-71
2024/01/21 00:57:02;;;;;;;45.58;29.02;;;;;;;-7.30;75.74;99559.56;4948296;29;20122;-74
2024/01/21 00:59:28;;;;;;;43.05;29.00;;;;;;;-7.12;75.53;99579.31;4936310;29;20031;-74
2024/01/21 01:01:54;;;;;;;48.78;28.27;;;;;;;-7.23;75.45;99571.31;4931752;29;20046;-74
2024/01/21 01:04:19;;;;;;;51.47;30.80;;;;;;;-7.09;75.51;99586.13;4937712;29;20063;-73
2024/01/21 01:06:45;;;;;;;42.83;25.88;;;;;;;-7.24;75.41;99582.75;4945040;29;20036;-71
2024/01/21 01:09:10;;;;;;;50.90;33.28;;;;;;;-7.21;75.30;99590.38;4936038;29;20038;-72
2024/01/21 01:11:37;;;;;;;42.75;33.45;;;;;;;-7.30;74.88;99563.97;4918835;29;20062;-73
2024/01/21 01:14:03;;;;;;;56.83;39.42;;;;;;;-7.26;74.83;99592.44;4952228;28;20058;-73
2024/01/21 01:16:28;;;;;;;55.67;33.47;;;;;;;-7.46;75.17;99564.13;4935467;29;20122;-73
2024/01/21 01:18:54;;;;;;;52.20;33.90;;;;;;;-7.51;75.23;99555.72;4948339;29;20027;-73
2024/01/21 01:21:20;;;;;;;47.22;25.65;;;;;;;-7.48;75.47;99581.69;4930306;29;20491;-72
2024/01/21 01:23:46;;;;;;;47.50;34.05;;;;;;;-7.66;75.12;99530.56;4949640;29;20027;-72
2024/01/21 01:26:11;;;;;;;53.03;33.10;;;;;;;-7.49;75.35;99574.78;4951781;29;20518;-72
2024/01/21 01:28:37;;;;;;;46.28;24.00;;;;;;;-7.73;75.09;99573.72;4915894;29;20395;-72
2024/01/21 01:31:02;;;;;;;45.83;25.77;;;;;;;-7.65;75.33;99568.84;4948192;29;21405;-73
2024/01/21 01:33:28;;;;;;;49.90;29.70;;;;;;;-7.54;75.34;99555.94;4945525;28;20165;-73
2024/01/21 01:35:53;;;;;;;50.88;27.83;;;;;;;-7.68;75.37;99548.13;4947881;29;20048;-72
2024/01/21 01:38:19;;;;;;;44.53;23.38;;;;;;;-7.58;75.00;99559.66;4931012;29;20042;-73
2024/01/21 01:40:44;;;;;;;42.65;29.10;;;;;;;-7.47;75.50;99565.06;4928159;29;20399;-72
2024/01/21 01:43:10;;;;;;;47.10;24.45;;;;;;;-7.80;75.33;99528.00;4952955;28;20023;-72
2024/01/21 01:45:36;;;;;;;42.85;23.50;;;;;;;-7.79;74.84;99513.97;4949651;29;20087;-71
2024/01/21 01:48:02;;;;;;;43.40;33.78;;;;;;;-7.37;74.85;99547.84;4950059;29;20037;-73
2024/01/21 01:50:29;;;;;;;44.92;23.05;;;;;;;-7.65;75.00;99537.47;4948550;29;20051;-72
2024/01/21 01:52:55;;;;;;;42.90;23.60;;;;;;;-7.71;75.10;99535.25;4916528;29;20033;-73
2024/01/21 01:55:21;;;;;;;44.42;26.92;;;;;;;-7.64;75.62;99518.25;4929755;29;20550;-73
2024/01/21 01:57:47;;;;;;;42.10;25.52;;;;;;;-7.47;75.32;99546.78;4941614;29;20031;-73
2024/01/21 02:00:13;;;;;;;45.05;23.95;;;;;;;-7.91;74.95;99483.41;4933855;29;20039;-73
2024/01/21 02:02:40;;;;;;;40.95;22.65;;;;;;;-7.53;75.02;99534.06;4945925;29;20076;-72
2024/01/21 02:05:07;;;;;;;41.22;27.35;;;;;;;-7.35;75.28;99538.09;4932635;29;20130;-72
2024/01/21 02:07:32;;;;;;;38.40;23.10;;;;;;;-7.50;75.04;99533.88;4928009;29;20414;-72
2024/01/21 02:09:59;;;;;;;44.22;27.15;;;;;;;-7.35;75.08;99538.09;4946055;29;20069;-73
2024/01/21 02:12:24;;;;;;;38.92;23.38;;;;;;;-7.47;74.89;99531.09;4935162;29;20451;-72
2024/01/21 02:14:50;;;;;;;36.15;23.42;;;;;;;-7.47;74.89;99525.84;4928202;29;20059;-73
2024/01/21 02:17:15;;;;;;;36.72;23.63;;;;;;;-7.43;75.03;99522.09;4948493;29;20035;-73
2024/01/21 02:19:40;;;;;;;37.13;24.38;;;;;;;-7.41;74.84;99519.34;4933945;29;20047;-71
2024/01/21 02:22:06;;;;;;;37.65;25.85;;;;;;;-7.38;75.03;99513.94;4949391;29;20027;-71
2024/01/21 02:24:31;;;;;;;38.75;22.60;;;;;;;-7.38;75.01;99517.41;4946928;29;20450;-71
2024/01/21 02:26:58;;;;;;;38.33;20.40;;;;;;;-7.66;75.26;99488.75;4943551;29;20027;-71
2024/01/21 02:29:23;;;;;;;41.38;28.25;;;;;;;-7.46;75.59;99506.59;4944631;29;20031;-72
2024/01/21 02:31:53;;;;;;;46.70;24.83;;;;;;;-7.80;74.65;99496.63;4947629;28;20039;-71
2024/01/21 02:34:19;;;;;;;48.78;26.80;;;;;;;-7.95;75.34;99502.81;4924914;29;20036;-73
2024/01/21 02:36:45;;;;;;;47.15;30.65;;;;;;;-7.80;75.39;99496.63;4938263;29;20026;-71
2024/01/21 02:39:10;;;;;;;50.40;32.13;;;;;;;-7.80;75.32;99491.41;4948767;28;20711;-72
2024/01/21 02:41:35;;;;;;;50.05;26.98;;;;;;;-7.89;75.07;99486.75;4944752;28;20126;-71
2024/01/21 02:44:01;;;;;;;44.97;27.65;;;;;;;-7.88;75.33;99483.19;4946614;29;20043;-72
2024/01/21 02:46:26;;;;;;;43.22;26.65;;;;;;;-7.93;74.92;99474.81;4951268;29;20031;-72
2024/01/21 02:48:52;;;;;;;51.05;24.02;;;;;;;-7.96;74.95;99488.09;4945318;29;20059;-71
2024/01/21 02:51:17;;;;;;;45.80;26.65;;;;;;;-8.01;75.11;99495.38;4934424;29;20398;-71
2024/01/21 02:53:43;;;;;;;52.63;28.73;;;;;;;-8.04;75.50;99487.72;4939119;29;20063;-71
2024/01/21 02:56:08;;;;;;;59.65;28.65;;;;;;;-8.29;75.88;99464.09;4949613;29;20039;-71
2024/01/21 02:58:34;;;;;;;51.10;30.70;;;;;;;-8.03;75.60;99495.47;4947178;29;20039;-72
2024/01/21 03:00:59;;;;;;;53.53;31.63;;;;;;;-7.97;75.65;99491.63;4948372;29;20387;-71
2024/01/21 03:03:25;;;;;;;50.15;30.38;;;;;;;-8.07;75.36;99470.47;4945549;29;20039;-72
2024/01/21 03:05:50;;;;;;;53.50;31.30;;;;;;;-7.95;75.27;99476.69;4949131;29;20670;-71
2024/01/21 03:08:15;;;;;;;47.92;28.67;;;;;;;-7.93;75.16;99482.66;4919700;29;20126;-71
2024/01/21 03:10:41;;;;;;;48.42;29.60;;;;;;;-7.86;74.96;99476.09;4940714;29;20062;-71
2024/01/21 03:13:09;;;;;;;48.42;26.50;;;;;;;-7.92;74.92;99486.94;4928023;29;20627;-72
2024/01/21 03:15:35;;;;;;;50.97;38.53;;;;;;;-7.85;75.00;99480.41;4929928;29;20027;-72
2024/01/21 03:18:00;;;;;;;47.58;29.20;;;;;;;-8.15;75.51;99461.44;4940241;29;20043;-72
2024/01/21 03:20:26;;;;;;;52.90;25.40;;;;;;;-8.21;75.40;99464.44;4928668;29;20023;-72
2024/01/21 03:22:51;;;;;;;52.83;27.95;;;;;;;-8.38;75.46;99447.25;4939640;29;20040;-73
2024/01/21 03:25:16;;;;;;;50.58;24.08;;;;;;;-8.17;75.39;99481.59;4936727;29;20027;-72
2024/01/21 03:27:42;;;;;;;43.50;26.58;;;;;;;-8.18;75.24;99464.22;4910678;29;20031;-71
2024/01/21 03:30:08;;;;;;;45.15;24.45;;;;;;;-8.17;75.45;99469.38;4950933;29;20086;-69
2024/01/21 03:32:33;;;;;;;47.25;27.80;;;;;;;-8.06;75.49;99469.53;4942484;29;20047;-71
2024/01/21 03:34:59;;;;;;;52.67;29.58;;;;;;;-8.04;75.48;99464.19;4949133;29;20047;-71
2024/01/21 03:37:24;;;;;;;50.35;32.72;;;;;;;-8.04;75.39;99456.38;4955617;28;20039;-69
2024/01/21 03:39:49;;;;;;;52.25;31.77;;;;;;;-8.19;75.42;99467.81;4944018;29;20042;-69
2024/01/21 03:42:15;;;;;;;49.33;28.35;;;;;;;-8.24;75.36;99467.25;4943386;29;20101;-71
2024/01/21 03:44:40;;;;;;;47.25;24.00;;;;;;;-8.59;75.17;99464.25;4947511;29;20114;-70
2024/01/21 03:47:06;;;;;;;42.80;23.48;;;;;;;-8.63;75.50;99463.56;4941356;29;20031;-70
2024/01/21 03:49:31;;;;;;;47.55;26.50;;;;;;;-8.51;75.46;99444.53;4946110;29;20023;-70
2024/01/21 03:51:57;;;;;;;41.40;23.80;;;;;;;-8.48;75.43;99454.81;4946872;29;20499;-70
2024/01/21 03:54:22;;;;;;;48.60;25.52;;;;;;;-8.46;75.34;99450.31;4953816;29;20090;-69
2024/01/21 03:56:48;;;;;;;45.97;29.08;;;;;;;-8.37;75.24;99437.63;4948737;29;20063;-71
2024/01/21 03:59:13;;;;;;;45.65;25.17;;;;;;;-8.41;75.06;99451.81;4937462;29;20078;-70
2024/01/21 04:01:45;;;;;;;45.78;22.50;;;;;;;-8.42;75.50;99434.47;4948542;29;20035;-71
2024/01/21 04:04:13;;;;;;;46.40;23.60;;;;;;;-8.37;75.49;99437.63;4941650;29;20047;-70
2024/01/21 04:06:40;;;;;;;48.88;27.90;;;;;;;-8.34;74.80;99437.44;4929313;29;20031;-71
2024/01/21 04:09:05;;;;;;;43.55;23.88;;;;;;;-8.51;75.29;99426.28;4936730;29;20046;-70
2024/01/21 04:11:31;;;;;;;47.00;31.42;;;;;;;-8.33;75.18;99433.91;4951794;29;20406;-70
2024/01/21 04:13:56;;;;;;;43.60;23.38;;;;;;;-8.43;75.05;99427.56;4953685;29;20031;-70
2024/01/21 04:16:21;;;;;;;43.72;28.08;;;;;;;-8.33;75.06;99426.06;4948187;29;20078;-70
2024/01/21 04:18:47;;;;;;;45.75;28.98;;;;;;;-8.35;74.75;99409.66;4952124;29;20031;-70
2024/01/21 04:21:13;;;;;;;51.13;27.40;;;;;;;-8.36;75.07;99434.94;4945806;29;20023;-71
2024/01/21 04:23:39;;;;;;;46.33;30.17;;;;;;;-8.43;74.48;99409.28;4949957;29;20034;-71
2024/01/21 04:26:04;;;;;;;47.42;26.90;;;;;;;-8.56;74.96;99423.09;4932357;29;20561;-71
2024/01/21 04:28:30;;;;;;;45.67;28.40;;;;;;;-8.60;74.58;99405.13;4943367;29;20399;-71
2024/01/21 04:30:55;;;;;;;47.25;22.88;;;;;;;-8.62;74.64;99422.66;4932464;29;20031;-71
2024/01/21 04:33:20;;;;;;;42.47;23.40;;;;;;;-8.71;74.66;99408.41;4955407;29;20490;-71
2024/01/21 04:35:46;;;;;;;40.47;22.98;;;;;;;-8.68;74.59;99413.41;4939601;29;20613;-71
2024/01/21 04:38:12;;;;;;;47.35;29.83;;;;;;;-8.45;74.92;99415.44;4946108;29;20109;-71
2024/01/21 04:40:38;;;;;;;57.47;25.73;;;;;;;-8.46;74.48;99411.16;4928024;29;20028;-71
2024/01/21 04:43:04;;;;;;;53.80;31.23;;;;;;;-8.46;74.58;99402.47;4952315;29;20042;-71
2024/01/21 04:45:29;;;;;;;49.83;28.30;;;;;;;-8.52;74.73;99419.34;4949587;29;20027;-72
2024/01/21 04:47:54;;;;;;;54.30;26.98;;;;;;;-8.68;74.74;99397.75;4953013;29;20039;-70
2024/01/21 04:50:20;;;;;;;52.63;31.88;;;;;;;-8.45;74.52;99420.66;4947560;29;20027;-70
2024/01/21 04:52:46;;;;;;;47.63;26.23;;;;;;;-8.72;74.63;99411.94;4946952;28;20083;-70
2024/01/21 04:55:11;;;;;;;43.25;22.80;;;;;;;-8.66;74.65;99427.19;4945976;28;20117;-71
2024/01/21 04:57:37;;;;;;;40.75;24.02;;;;;;;-8.75;74.30;99430.38;4948473;29;20162;-71
2024/01/21 05:00:03;;;;;;;46.13;26.65;;;;;;;-8.70;74.71;99427.50;4943438;29;20040;-71
2024/01/21 05:02:28;;;;;;;45.05;27.35;;;;;;;-8.69;74.46;99421.34;4949279;29;20082;-72
2024/01/21 05:04:54;;;;;;;45.63;28.85;;;;;;;-8.56;74.17;99423.09;4943183;28;20071;-72
2024/01/21 05:07:19;;;;;;;45.92;23.83;;;;;;;-8.73;74.39;99430.31;4929532;29;20134;-71
2024/01/21 05:09:44;;;;;;;43.63;23.08;;;;;;;-8.71;74.37;99434.50;4963972;28;20040;-71
2024/01/21 05:12:10;;;;;;;46.80;25.02;;;;;;;-8.75;74.35;99427.78;4948049;28;20122;-71
2024/01/21 05:14:37;;;;;;;47.25;27.52;;;;;;;-8.60;74.98;99429.47;4927948;29;20071;-72
2024/01/21 05:17:03;;;;;;;42.90;24.95;;;;;;;-8.53;74.54;99432.53;4937044;29;20112;-71
2024/01/21 05:19:28;;;;;;;45.53;23.80;;;;;;;-8.61;74.83;99430.38;4947373;28;20499;-72
2024/01/21 05:21:53;;;;;;;41.30;23.08;;;;;;;-8.64;74.43;99430.59;4950496;29;20518;-71
2024/01/21 05:24:19;;;;;;;43.28;23.77;;;;;;;-8.48;74.68;99430.47;4947805;29;20039;-73
2024/01/21 05:26:45;;;;;;;40.88;22.20;;;;;;;-8.69;74.92;99398.69;4948380;29;20039;-73
2024/01/21 05:29:11;;;;;;;45.17;25.17;;;;;;;-8.37;74.72;99427.16;4946470;29;20023;-72
2024/01/21 05:31:36;;;;;;;37.33;20.70;;;;;;;-8.43;74.58;99424.97;4939196;29;20503;-72
2024/01/21 05:34:01;;;;;;;43.35;22.27;;;;;;;-8.47;74.50;99422.53;4947974;29;20059;-71
2024/01/21 05:36:27;;;;;;;39.83;22.65;;;;;;;-8.47;74.79;99414.69;4953885;28;20043;-71
2024/01/21 05:38:52;;;;;;;42.97;27.92;;;;;;;-8.30;74.83;99418.00;4934374;29;20062;-71
2024/01/21 05:41:18;;;;;;;40.53;22.45;;;;;;;-8.56;74.91;99385.72;4948143;29;20039;-72
2024/01/21 05:43:43;;;;;;;39.92;22.08;;;;;;;-8.45;74.86;99404.97;4962736;28;20040;-72
2024/01/21 05:46:09;;;;;;;41.92;21.40;;;;;;;-8.51;74.94;99415.81;4954845;29;20055;-72
2024/01/21 05:48:34;;;;;;;43.28;23.27;;;;;;;-8.52;74.67;99414.13;4945595;29;20038;-72
2024/01/21 05:51:00;;;;;;;45.92;26.27;;;;;;;-8.74;75.01;99405.97;4952116;29;20098;-73
2024/01/21 05:53:25;;;;;;;48.75;24.52;;;;;;;-8.81;74.62;99428.16;4943990;28;20112;-73
2024/01/21 05:55:51;;;;;;;49.10;32.08;;;;;;;-8.71;74.70;99429.28;4949842;29;20047;-72
2024/01/21 05:58:16;;;;;;;59.65;30.58;;;;;;;-8.97;74.73;99427.41;4930830;29;20062;-72
2024/01/21 06:00:42;;;;;;;46.25;25.23;;;;;;;-8.90;74.63;99454.81;4945462;28;20116;-72
2024/01/21 06:03:07;;;;;;;48.72;28.20;;;;;;;-8.95;74.58;99440.34;4944127;29;20051;-72
2024/01/21 06:05:32;;;;;;;48.60;26.50;;;;;;;-8.91;74.97;99465.34;4949780;28;20043;-72
2024/01/21 06:07:58;;;;;;;50.60;26.75;;;;;;;-8.87;74.58;99461.63;4943891;23;21058;-66
2024/01/21 06:10:23;;;;;;;50.45;26.42;;;;;;;-8.82;74.65;99449.97;4917526;29;20128;-67
2024/01/21 06:12:48;;;;;;;48.40;24.33;;;;;;;-8.80;74.36;99445.50;4911523;29;20039;-67
2024/01/21 06:15:14;;;;;;;44.78;24.50;;;;;;;-8.71;74.52;99454.53;4915822;29;20036;-68
2024/01/21 06:17:39;;;;;;;41.28;27.42;;;;;;;-8.62;74.22;99449.59;4919163;29;20050;-69
2024/01/21 06:20:07;;;;;;;43.50;22.58;;;;;;;-8.83;74.50;99430.03;4919018;29;20503;-70
2024/01/21 06:22:32;;;;;;;44.22;27.42;;;;;;;-8.69;74.11;99427.41;4904970;29;20072;-69
2024/01/21 06:24:58;;;;;;;39.70;21.20;;;;;;;-8.74;74.05;99445.13;4912654;29;20047;-69
2024/01/21 06:27:23;;;;;;;35.65;20.88;;;;;;;-8.64;74.36;99448.84;4902257;29;20047;-70
2024/01/21 06:29:48;;;;;;;38.47;24.52;;;;;;;-8.51;74.36;99451.53;4908278;29;20044;-67
2024/01/21 06:32:14;;;;;;;41.97;22.15;;;;;;;-8.53;74.19;99449.03;4911950;29;20470;-68
2024/01/21 06:34:39;;;;;;;40.92;20.90;;;;;;;-8.62;74.33;99453.97;4908346;29;20041;-68
2024/01/21 06:37:05;;;;;;;41.30;28.25;;;;;;;-8.49;74.61;99450.50;4906412;29;20047;-68
2024/01/21 06:39:30;;;;;;;39.20;21.17;;;;;;;-8.63;74.48;99447.06;4915174;29;20051;-68
2024/01/21 06:41:55;;;;;;;36.20;21.83;;;;;;;-8.59;74.49;99443.34;4912193;29;20032;-68
2024/01/21 06:44:21;;;;;;;47.17;26.05;;;;;;;-8.65;74.55;99408.00;4914356;29;20115;-67
2024/01/21 06:46:46;;;;;;;48.63;29.80;;;;;;;-8.43;74.55;99427.56;4906296;29;20107;-67
2024/01/21 06:49:12;;;;;;;49.15;26.55;;;;;;;-8.34;74.48;99429.59;4904741;29;20138;-68
2024/01/21 06:51:47;;;;;;;40.00;25.75;;;;;;;-8.28;74.83;99416.16;4925673;29;20028;-67
2024/01/21 06:54:15;;;;;;;47.17;25.65;;;;;;;-8.29;74.84;99415.31;4913416;29;20111;-67
2024/01/21 06:56:40;;;;;;;44.60;24.38;;;;;;;-8.19;74.77;99432.03;4908670;29;20496;-67
2024/01/21 06:59:06;;;;;;;44.80;27.42;;;;;;;-8.07;74.87;99419.97;4908399;29;20091;-69
2024/01/21 07:01:31;;;;;;;44.88;26.10;;;;;;;-8.06;74.93;99422.50;4910055;29;20107;-68
2024/01/21 07:03:57;;;;;;;43.28;25.00;;;;;;;-8.22;74.62;99405.28;4908430;29;20062;-68
2024/01/21 07:06:22;;;;;;;48.50;24.95;;;;;;;-8.19;75.17;99426.81;4900845;29;20361;-68
2024/01/21 07:08:47;;;;;;;42.92;24.67;;;;;;;-8.20;75.04;99413.88;4920504;29;20070;-68
2024/01/21 07:11:13;;;;;;;43.60;31.23;;;;;;;-7.99;75.54;99417.72;4915814;29;20031;-67
2024/01/21 07:13:39;;;;;;;40.40;22.38;;;;;;;-8.09;75.13;99416.63;4895005;29;20041;-68
2024/01/21 07:16:04;;;;;;;48.65;22.30;;;;;;;-8.06;75.50;99405.97;4914596;29;20033;-68
2024/01/21 07:18:30;;;;;;;43.30;24.63;;;;;;;-7.79;75.35;99414.63;4923580;29;20047;-68
2024/01/21 07:20:55;;;;;;;51.40;32.25;;;;;;;-7.66;75.75;99423.38;4920695;29;20032;-67
2024/01/21 07:23:21;;;;;;;51.55;30.83;;;;;;;-7.65;76.00;99421.59;4905347;29;20828;-68
2024/01/21 07:25:47;;;;;;;48.33;29.05;;;;;;;-7.55;76.12;99420.88;4906946;29;20032;-68
2024/01/21 07:28:13;;;;;;;48.28;29.15;;;;;;;-7.43;76.74;99427.94;4907128;29;20024;-67
2024/01/21 07:30:38;;;;;;;45.40;25.33;;;;;;;-7.51;76.78;99409.28;4893408;29;20036;-69
2024/01/21 07:33:04;;;;;;;39.97;31.05;;;;;;;-7.10;76.91;99420.44;4904909;29;20040;-68
2024/01/21 07:35:29;;;;;;;45.42;23.23;;;;;;;-7.18;77.32;99416.63;4891562;29;20036;-68
2024/01/21 07:37:55;;;;;;;44.05;23.48;;;;;;;-7.19;77.29;99388.81;4888861;29;20107;-69
2024/01/21 07:40:22;;;;;;;40.88;22.95;;;;;;;-6.89;77.01;99422.53;4909094;29;20444;-69
2024/01/21 07:42:48;;;;;;;44.42;23.65;;;;;;;-6.81;76.99;99431.50;4909681;29;20404;-69
2024/01/21 07:45:13;;;;;;;47.78;24.33;;;;;;;-6.71;77.37;99426.47;4915270;29;20032;-69
2024/01/21 07:47:39;;;;;;;45.17;23.73;;;;;;;-6.55;77.23;99427.09;4900818;29;20048;-68
2024/01/21 07:50:04;;;;;;;43.55;32.75;;;;;;;-6.34;77.17;99404.63;4910649;29;20032;-68
2024/01/21 07:52:30;;;;;;;47.28;30.45;;;;;;;-6.24;77.01;99394.31;4904151;29;20048;-69
2024/01/21 07:54:55;;;;;;;41.10;25.55;;;;;;;-6.23;77.04;99401.25;4893957;29;20547;-69
2024/01/21 07:57:21;;;;;;;43.92;32.63;;;;;;;-6.06;76.99;99398.22;4919974;29;20051;-68
2024/01/21 07:59:46;;;;;;;42.28;23.02;;;;;;;-6.09;77.56;99399.28;4920242;29;20052;-69
2024/01/21 08:02:12;;;;;;;42.22;25.02;;;;;;;-6.16;77.59;99363.16;4911260;29;20032;-69
2024/01/21 08:04:37;;;;;;;43.90;34.20;;;;;;;-5.79;77.25;99402.25;4905917;29;20058;-69
2024/01/21 08:07:03;;;;;;;50.15;25.17;;;;;;;-5.97;76.88;99408.03;4926613;29;20094;-69
2024/01/21 08:09:29;;;;;;;43.60;30.80;;;;;;;-5.97;77.41;99403.66;4905994;29;20480;-68
2024/01/21 08:11:55;;;;;;;42.95;29.80;;;;;;;-6.24;77.41;99395.16;4926589;29;20102;-69
2024/01/21 08:14:20;;;;;;;181.95;58.72;;;;;;;-6.43;76.29;99389.56;4921469;29;20479;-69
2024/01/21 08:16:45;;;;;;;86.78;45.80;;;;;;;-6.38;76.53;99387.44;4900126;29;20039;-69
2024/01/21 08:19:11;;;;;;;86.10;52.10;;;;;;;-6.16;76.70;99392.81;4912297;29;20029;-69
2024/01/21 08:21:36;;;;;;;52.72;33.10;;;;;;;-6.16;75.78;99387.56;4916836;29;20044;-69
2024/01/21 08:24:02;;;;;;;50.78;36.00;;;;;;;-6.38;76.05;99371.72;4903064;29;20523;-69
2024/01/21 08:26:27;;;;;;;56.00;42.22;;;;;;;-6.30;76.03;99353.66;4910559;29;20035;-68
2024/01/21 08:28:53;;;;;;;50.72;28.45;;;;;;;-6.48;75.29;99360.22;4913945;29;20432;-69
2024/01/21 08:31:18;;;;;;;54.30;41.38;;;;;;;-6.21;75.21;99394.94;4919681;29;20067;-69
2024/01/21 08:33:43;;;;;;;52.55;39.05;;;;;;;-6.27;75.04;99408.47;4918891;29;20118;-69
2024/01/21 08:36:09;;;;;;;52.22;33.67;;;;;;;-6.17;75.33;99412.13;4917204;29;20047;-69
2024/01/21 08:38:35;;;;;;;57.80;38.75;;;;;;;-6.18;74.40;99394.72;4925594;29;20066;-68
2024/01/21 08:41:01;;;;;;;58.78;32.80;;;;;;;-6.10;75.37;99397.63;4922510;29;20047;-69
2024/01/21 08:43:26;;;;;;;69.60;41.70;;;;;;;-5.86;74.97;99406.31;4900083;29;20032;-69
2024/01/21 08:45:51;;;;;;;59.50;30.45;;;;;;;-5.68;74.87;99420.69;4898106;29;20390;-69
2024/01/21 08:48:17;;;;;;;52.80;41.38;;;;;;;-5.41;74.23;99423.06;4912541;29;20075;-68
2024/01/21 08:50:42;;;;;;;48.08;28.27;;;;;;;-5.44;74.62;99430.31;4929912;29;20044;-69
2024/01/21 08:53:08;;;;;;;42.85;27.13;;;;;;;-5.28;74.08;99433.47;4921176;29;20036;-70
2024/01/21 08:55:33;;;;;;;46.88;28.60;;;;;;;-5.26;74.61;99421.06;4906951;29;20040;-69
2024/01/21 08:57:59;;;;;;;44.25;36.13;;;;;;;-4.92;74.75;99430.69;4918053;29;20133;-68
2024/01/21 09:00:25;;;;;;;48.33;29.63;;;;;;;-4.92;74.79;99420.19;4919729;29;20110;-69
2024/01/21 09:02:50;;;;;;;46.47;26.48;;;;;;;-4.85;74.55;99405.63;4909499;29;20552;-69
2024/01/21 09:05:16;;;;;;;46.53;31.42;;;;;;;-4.69;74.21;99414.00;4920593;29;20048;-68
2024/01/21 09:07:41;;;;;;;49.95;28.13;;;;;;;-4.82;74.39;99394.03;4902332;29;20101;-68
2024/01/21 09:10:08;;;;;;;45.90;28.27;;;;;;;-4.83;74.84;99408.97;4911148;29;20035;-69
2024/01/21 09:12:34;;;;;;;52.90;29.33;;;;;;;-4.72;75.25;99419.50;4926636;29;20040;-68
2024/01/21 09:14:59;;;;;;;58.72;35.00;;;;;;;-5.13;74.87;99429.69;4913235;29;20044;-68
2024/01/21 09:17:25;;;;;;;60.08;35.53;;;;;;;-5.26;75.37;99421.91;4898392;29;20032;-68
2024/01/21 09:19:50;;;;;;;52.83;42.05;;;;;;;-4.81;75.17;99414.97;4920585;29;20627;-69
2024/01/21 09:22:16;;;;;;;104.35;62.33;;;;;;;-4.95;74.69;99352.16;4912037;29;20043;-69
2024/01/21 09:24:41;;;;;;;274.23;115.93;;;;;;;-4.68;74.38;99402.53;4905761;29;20050;-68
2024/01/21 09:27:07;;;;;;;167.18;112.10;;;;;;;-4.33;74.09;99424.28;4922992;29;20040;-68
2024/01/21 09:29:32;;;;;;;62.85;36.95;;;;;;;-4.43;74.44;99438.25;4909346;29;20040;-69
2024/01/21 09:31:58;;;;;;;44.38;29.15;;;;;;;-4.31;74.66;99438.13;4907310;29;20099;-69
2024/01/21 09:34:24;;;;;;;49.97;27.23;;;;;;;-4.36;74.69;99424.50;4921858;29;20040;-69
2024/01/21 09:36:51;;;;;;;52.75;37.50;;;;;;;-4.04;74.96;99444.81;4914572;29;20103;-68
2024/01/21 09:39:17;;;;;;;49.08;29.50;;;;;;;-4.12;74.86;99437.50;4904512;29;20178;-68
2024/01/21 09:41:50;;;;;;;47.05;28.45;;;;;;;-3.90;75.17;99429.59;4903584;29;20033;-69
2024/01/21 09:44:20;;;;;;;45.53;29.35;;;;;;;-3.73;75.18;99422.94;4900312;29;20040;-68
2024/01/21 09:46:52;;;;;;;50.60;30.85;;;;;;;-3.42;74.97;99421.28;4897130;29;20033;-69
2024/01/21 09:49:19;;;;;;;43.75;26.08;;;;;;;-3.40;74.82;99412.28;4935166;29;20484;-68
2024/01/21 09:51:46;;;;;;;43.97;26.63;;;;;;;-3.17;75.32;99421.75;4908375;29;20091;-69
2024/01/21 09:54:11;;;;;;;42.70;28.33;;;;;;;-2.98;75.13;99429.78;4903718;29;20036;-69
2024/01/21 09:56:37;;;;;;;50.75;32.95;;;;;;;-2.86;75.32;99426.13;4907809;29;20083;-68
2024/01/21 09:59:03;;;;;;;41.25;28.27;;;;;;;-2.93;75.17;99408.31;4913516;29;20059;-71
2024/01/21 10:01:29;;;;;;;56.47;34.72;;;;;;;-2.80;75.42;99425.59;4908110;29;20059;-69
2024/01/21 10:03:55;;;;;;;45.05;30.38;;;;;;;-2.58;75.27;99413.22;4907985;29;20455;-69
2024/01/21 10:06:21;;;;;;;37.47;28.05;;;;;;;-2.32;75.02;99414.44;4912127;29;20020;-69
2024/01/21 10:08:46;;;;;;;39.70;28.23;;;;;;;-2.12;74.94;99410.88;4916107;29;20044;-69
2024/01/21 10:11:12;;;;;;;36.20;26.38;;;;;;;-2.08;74.53;99391.19;4916071;29;20024;-68
2024/01/21 10:13:38;;;;;;;37.33;24.48;;;;;;;-2.04;74.81;99365.34;4904724;29;20489;-68
2024/01/21 10:16:07;;;;;;;35.30;22.70;;;;;;;-1.87;74.62;99368.19;4915756;29;20034;-68
2024/01/21 10:18:32;;;;;;;33.10;21.08;;;;;;;-1.71;74.42;99379.03;4921054;29;20047;-68
2024/01/21 10:20:58;;;;;;;28.10;20.27;;;;;;;-1.61;74.02;99379.84;4916913;29;20028;-68
2024/01/21 10:23:23;;;;;;;31.00;22.98;;;;;;;-1.53;74.26;99387.91;4914821;29;20066;-68
2024/01/21 10:25:49;;;;;;;26.55;22.67;;;;;;;-1.52;73.95;99367.63;4912642;29;20511;-70
2024/01/21 10:28:15;;;;;;;29.60;19.13;;;;;;;-1.47;74.13;99397.91;4895918;29;20552;-68
2024/01/21 10:30:42;;;;;;;28.42;19.08;;;;;;;-1.46;73.64;99389.03;4903644;29;20032;-67
2024/01/21 10:33:07;;;;;;;23.20;17.95;;;;;;;-1.41;74.22;99389.44;4911778;29;20055;-69
2024/01/21 10:35:33;;;;;;;21.80;16.58;;;;;;;-1.41;74.45;99375.41;4912559;29;20080;-69
2024/01/21 10:38:02;;;;;;;22.25;15.90;;;;;;;-1.21;74.20;99407.94;4915551;29;20488;-68
2024/01/21 10:40:27;;;;;;;20.08;14.82;;;;;;;-1.18;73.62;99412.91;4917750;29;20062;-68
2024/01/21 10:42:57;;;;;;;18.95;14.63;;;;;;;-1.06;73.75;99411.81;4913470;29;20033;-68
2024/01/21 10:45:23;;;;;;;20.27;15.07;;;;;;;-1.21;73.58;99370.94;4910621;29;20043;-69
2024/01/21 10:47:49;;;;;;;21.15;15.38;;;;;;;-0.85;72.88;99409.81;4896050;29;20572;-68
2024/01/21 10:50:16;;;;;;;20.40;15.20;;;;;;;-0.90;73.03;99397.03;4924895;29;20027;-68
2024/01/21 10:52:43;;;;;;;18.48;16.33;;;;;;;-0.57;72.24;99418.66;4918562;29;20040;-68
2024/01/21 10:55:09;;;;;;;17.23;14.77;;;;;;;-0.63;72.12;99390.94;4915779;29;20035;-69
2024/01/21 10:57:34;;;;;;;17.65;15.73;;;;;;;-0.40;71.83;99409.97;4922686;29;20040;-69
2024/01/21 11:00:00;;;;;;;18.75;16.75;;;;;;;-0.27;72.04;99411.28;4905799;29;20035;-69
2024/01/21 11:02:25;;;;;;;16.60;13.75;;;;;;;-0.24;71.10;99413.66;4907863;29;20043;-68
2024/01/21 11:04:51;;;;;;;18.20;16.15;;;;;;;-0.06;71.30;99430.44;4909549;29;20489;-68
2024/01/21 11:07:17;;;;;;;17.80;15.23;;;;;;;0.04;70.43;99429.53;4925897;29;20110;-68
2024/01/21 11:09:42;;;;;;;17.65;15.82;;;;;;;0.08;70.23;99425.59;4910142;29;20040;-70